Saltburn-by-the-Sea, United Kingdom
Current Conditions -  °F | °C
As of 5:50 AM on Sunday 23 Nov 2014 (Local Time) from EGNV Reporting Station
Light Rain Light Rain  
Wind Chill:   Ceiling: Unl
Heat Index:   Visibility: 5mi
Dew Point:   Wind: 6mph
Humidity: 87%   Direction: 250°WSW
Pressure: 30"   Gusts: NA
Location:  54.58°N, 0.97°W
Report Text: EGNV 230550Z 25005KT 210V270 8000 -RA FEW015 SCT030 08/06 Q1016
Loading
Personal Weather Stations






























Interactive Weather Map New forecast layout! Learn more

10-Day Weather Forecast

Advertisements
Track Severe Weather on mobile